createdAt,value
2023-04-16T00:00:02.096Z,549.00
2023-04-16T00:01:02.246Z,546.00
2023-04-16T00:02:02.302Z,548.00
2023-04-16T00:03:02.415Z,539.00
2023-04-16T00:04:02.819Z,542.00
2023-04-16T00:05:02.406Z,543.00
2023-04-16T00:06:02.399Z,541.00
2023-04-16T00:07:02.432Z,540.00
2023-04-16T00:08:02.492Z,542.00
2023-04-16T00:09:02.541Z,538.00
2023-04-16T00:10:02.584Z,547.00
2023-04-16T00:11:02.716Z,542.00
2023-04-16T00:12:02.693Z,542.00
2023-04-16T00:13:02.757Z,543.00
2023-04-16T00:14:02.810Z,541.00
2023-04-16T00:15:02.894Z,544.00
2023-04-16T00:16:02.952Z,544.00
2023-04-16T00:17:03.058Z,541.00
2023-04-16T00:18:03.111Z,540.00
2023-04-16T00:19:03.067Z,543.00
2023-04-16T00:20:03.130Z,542.00
2023-04-16T00:21:03.296Z,543.00
2023-04-16T00:22:03.299Z,543.00
2023-04-16T00:23:03.303Z,547.00
2023-04-16T00:24:03.334Z,544.00
2023-04-16T00:25:03.428Z,541.00
2023-04-16T00:26:03.459Z,542.00
2023-04-16T00:27:03.509Z,539.00
2023-04-16T00:28:03.585Z,543.00
2023-04-16T00:29:03.663Z,542.00
2023-04-16T00:30:03.669Z,540.00
2023-04-16T00:31:03.776Z,542.00
2023-04-16T00:32:03.791Z,542.00
2023-04-16T00:33:03.867Z,544.00
2023-04-16T00:34:03.892Z,536.00
2023-04-16T00:35:03.952Z,541.00
2023-04-16T00:36:03.992Z,545.00
2023-04-16T00:37:04.065Z,540.00
2023-04-16T00:38:04.174Z,541.00
2023-04-16T00:39:04.184Z,545.00
2023-04-16T00:40:04.246Z,545.00
2023-04-16T00:41:04.294Z,542.00
2023-04-16T00:42:04.341Z,539.00
2023-04-16T00:43:04.416Z,539.00
2023-04-16T00:44:04.474Z,543.00
2023-04-16T00:45:04.528Z,543.00
2023-04-16T00:46:04.590Z,539.00
2023-04-16T00:47:04.632Z,543.00
2023-04-16T00:48:04.766Z,546.00
2023-04-16T00:49:04.749Z,535.00
2023-04-16T00:50:04.828Z,540.00
2023-04-16T00:51:04.849Z,540.00
2023-04-16T00:52:05.379Z,539.00
2023-04-16T00:53:05.364Z,545.00
2023-04-16T00:54:05.017Z,540.00
2023-04-16T00:55:05.096Z,543.00
2023-04-16T00:56:05.105Z,539.00
2023-04-16T00:57:05.205Z,545.00
2023-04-16T00:58:05.267Z,546.00
2023-04-16T00:59:05.277Z,540.00
2023-04-16T01:00:05.355Z,539.00
2023-04-16T01:01:05.467Z,538.00
2023-04-16T01:02:05.697Z,537.00
2023-04-16T01:03:05.633Z,539.00
2023-04-16T01:04:05.648Z,539.00
2023-04-16T01:05:05.644Z,537.00
2023-04-16T01:06:05.687Z,539.00
2023-04-16T01:07:05.764Z,543.00
2023-04-16T01:08:05.856Z,542.00
2023-04-16T01:09:05.849Z,543.00
2023-04-16T01:10:05.924Z,537.00
2023-04-16T01:11:05.969Z,543.00
2023-04-16T01:12:06.003Z,537.00
2023-04-16T01:13:06.087Z,542.00
2023-04-16T01:14:06.088Z,541.00
2023-04-16T01:15:06.130Z,546.00
2023-04-16T01:16:06.254Z,541.00
2023-04-16T01:17:06.249Z,540.00
2023-04-16T01:18:06.357Z,539.00
2023-04-16T01:19:06.344Z,542.00
2023-04-16T01:20:06.427Z,545.00
2023-04-16T01:21:06.466Z,539.00
2023-04-16T01:22:06.522Z,536.00
2023-04-16T01:23:06.595Z,536.00
2023-04-16T01:24:06.613Z,537.00
2023-04-16T01:25:06.655Z,534.00
2023-04-16T01:26:06.679Z,532.00
2023-04-16T01:27:06.749Z,541.00
2023-04-16T01:28:06.818Z,542.00
2023-04-16T01:29:06.873Z,539.00
2023-04-16T01:30:06.857Z,540.00
2023-04-16T01:31:06.931Z,538.00
2023-04-16T01:32:06.994Z,531.00
2023-04-16T01:33:06.974Z,534.00
2023-04-16T01:34:07.043Z,537.00
2023-04-16T01:35:07.083Z,536.00
2023-04-16T01:36:07.136Z,536.00
2023-04-16T01:37:07.166Z,543.00
2023-04-16T01:38:07.238Z,534.00
2023-04-16T01:39:07.480Z,535.00
2023-04-16T01:40:07.266Z,537.00
2023-04-16T01:41:07.323Z,538.00
2023-04-16T01:42:07.377Z,537.00
2023-04-16T01:43:07.438Z,537.00
2023-04-16T01:44:07.446Z,539.00
2023-04-16T01:45:07.489Z,533.00
2023-04-16T01:46:07.581Z,533.00
2023-04-16T01:47:07.555Z,532.00
2023-04-16T01:48:07.663Z,536.00
2023-04-16T01:49:07.892Z,538.00
2023-04-16T01:50:07.649Z,535.00
2023-04-16T01:51:07.625Z,538.00
2023-04-16T01:52:07.654Z,535.00
2023-04-16T01:53:07.740Z,531.00
2023-04-16T01:54:07.693Z,532.00
2023-04-16T01:55:07.698Z,533.00
2023-04-16T01:56:07.727Z,538.00
2023-04-16T01:57:07.760Z,533.00
2023-04-16T01:58:07.864Z,536.00
2023-04-16T01:59:08.355Z,541.00
2023-04-16T02:00:07.837Z,532.00
2023-04-16T02:01:07.860Z,534.00
2023-04-16T02:02:07.988Z,537.00
2023-04-16T02:03:07.980Z,535.00
2023-04-16T02:04:07.937Z,533.00
2023-04-16T02:05:07.906Z,536.00
2023-04-16T02:06:07.929Z,538.00
2023-04-16T02:07:07.959Z,536.00
2023-04-16T02:08:07.997Z,535.00
2023-04-16T02:09:08.198Z,539.00
2023-04-16T02:10:08.072Z,539.00
2023-04-16T02:11:08.100Z,535.00
2023-04-16T02:12:08.170Z,535.00
2023-04-16T02:13:08.233Z,536.00
2023-04-16T02:14:08.271Z,531.00
2023-04-16T02:15:08.288Z,531.00
2023-04-16T02:16:08.341Z,529.00
2023-04-16T02:17:08.884Z,530.00
2023-04-16T02:18:08.415Z,536.00
2023-04-16T02:19:08.889Z,532.00
2023-04-16T02:20:08.473Z,533.00
2023-04-16T02:21:08.522Z,530.00
2023-04-16T02:22:08.584Z,532.00
2023-04-16T02:23:08.667Z,534.00
2023-04-16T02:24:08.680Z,531.00
2023-04-16T02:25:08.761Z,535.00
2023-04-16T02:26:08.815Z,534.00
2023-04-16T02:27:08.866Z,534.00
2023-04-16T02:28:08.997Z,532.00
2023-04-16T02:29:09.213Z,530.00
2023-04-16T02:30:09.079Z,536.00
2023-04-16T02:31:09.198Z,533.00
2023-04-16T02:32:09.237Z,534.00
2023-04-16T02:33:09.221Z,531.00
2023-04-16T02:34:09.280Z,534.00
2023-04-16T02:35:09.341Z,534.00
2023-04-16T02:36:09.413Z,532.00
2023-04-16T02:37:09.449Z,529.00
2023-04-16T02:38:09.555Z,531.00
2023-04-16T02:39:09.841Z,530.00
2023-04-16T02:40:09.646Z,532.00
2023-04-16T02:41:09.712Z,534.00
2023-04-16T02:42:09.740Z,536.00
2023-04-16T02:43:09.831Z,533.00
2023-04-16T02:44:09.998Z,529.00
2023-04-16T02:45:09.905Z,530.00
2023-04-16T02:46:10.011Z,530.00
2023-04-16T02:47:10.023Z,536.00
2023-04-16T02:48:10.097Z,533.00
2023-04-16T02:49:10.330Z,531.00
2023-04-16T02:50:10.203Z,532.00
2023-04-16T02:51:10.227Z,529.00
2023-04-16T02:52:10.318Z,532.00
2023-04-16T02:53:10.370Z,531.00
2023-04-16T02:54:10.424Z,527.00
2023-04-16T02:55:10.484Z,530.00
2023-04-16T02:56:10.541Z,529.00
2023-04-16T02:57:10.621Z,530.00
2023-04-16T02:58:10.663Z,533.00
2023-04-16T02:59:10.854Z,536.00
2023-04-16T03:00:10.771Z,527.00
2023-04-16T03:01:10.814Z,528.00
2023-04-16T03:02:10.852Z,528.00
2023-04-16T03:03:10.933Z,536.00
2023-04-16T03:04:10.941Z,532.00
2023-04-16T03:05:10.977Z,531.00
2023-04-16T03:06:11.038Z,528.00
2023-04-16T03:07:11.083Z,527.00
2023-04-16T03:08:11.122Z,529.00
2023-04-16T03:09:11.294Z,530.00
2023-04-16T03:10:11.201Z,526.00
2023-04-16T03:11:11.253Z,530.00
2023-04-16T03:12:11.252Z,523.00
2023-04-16T03:13:11.295Z,530.00
2023-04-16T03:14:11.332Z,529.00
2023-04-16T03:15:11.390Z,530.00
2023-04-16T03:16:11.446Z,529.00
2023-04-16T03:17:11.504Z,528.00
2023-04-16T03:18:11.577Z,531.00
2023-04-16T03:19:11.769Z,529.00
2023-04-16T03:20:11.651Z,529.00
2023-04-16T03:21:11.722Z,527.00
2023-04-16T03:22:11.711Z,528.00
2023-04-16T03:23:11.927Z,532.00
2023-04-16T03:24:11.792Z,524.00
2023-04-16T03:25:11.849Z,529.00
2023-04-16T03:26:11.866Z,528.00
2023-04-16T03:27:11.942Z,527.00
2023-04-16T03:28:11.983Z,527.00
2023-04-16T03:29:12.034Z,529.00
2023-04-16T03:30:12.068Z,531.00
2023-04-16T03:31:12.176Z,526.00
2023-04-16T03:32:12.204Z,523.00
2023-04-16T03:33:12.283Z,532.00
2023-04-16T03:34:12.306Z,527.00
2023-04-16T03:35:12.326Z,528.00
2023-04-16T03:36:12.331Z,528.00
2023-04-16T03:37:12.401Z,524.00
2023-04-16T03:38:12.459Z,527.00
2023-04-16T03:39:12.472Z,531.00
2023-04-16T03:40:12.508Z,524.00
2023-04-16T03:41:12.550Z,526.00
2023-04-16T03:42:12.532Z,528.00
2023-04-16T03:43:12.683Z,528.00
2023-04-16T03:44:12.632Z,526.00
2023-04-16T03:45:12.714Z,528.00
2023-04-16T03:46:12.753Z,529.00
2023-04-16T03:47:12.770Z,524.00
2023-04-16T03:48:12.778Z,524.00
2023-04-16T03:49:12.790Z,530.00
2023-04-16T03:50:12.854Z,528.00
2023-04-16T03:51:12.901Z,527.00
2023-04-16T03:52:13.007Z,528.00
2023-04-16T03:53:12.995Z,523.00
2023-04-16T03:54:13.035Z,529.00
2023-04-16T03:55:13.030Z,528.00
2023-04-16T03:56:13.090Z,527.00
2023-04-16T03:57:13.095Z,529.00
2023-04-16T03:58:13.149Z,527.00
2023-04-16T03:59:13.143Z,523.00
2023-04-16T04:00:13.191Z,522.00
2023-04-16T04:01:13.261Z,526.00
2023-04-16T04:02:13.400Z,526.00
2023-04-16T04:03:13.687Z,521.00
2023-04-16T04:04:13.412Z,527.00
2023-04-16T04:05:13.352Z,529.00
2023-04-16T04:06:13.405Z,527.00
2023-04-16T04:07:13.427Z,526.00
2023-04-16T04:08:13.499Z,529.00
2023-04-16T04:09:13.529Z,524.00
2023-04-16T04:10:13.535Z,526.00
2023-04-16T04:11:13.564Z,525.00
2023-04-16T04:12:13.599Z,524.00
2023-04-16T04:13:13.636Z,527.00
2023-04-16T04:14:13.664Z,529.00
2023-04-16T04:15:13.674Z,526.00
2023-04-16T04:16:13.699Z,526.00
2023-04-16T04:17:13.662Z,525.00
2023-04-16T04:18:13.698Z,524.00
2023-04-16T04:19:13.710Z,529.00
2023-04-16T04:20:13.662Z,527.00
2023-04-16T04:21:13.692Z,524.00
2023-04-16T04:22:13.684Z,526.00
2023-04-16T04:23:13.670Z,527.00
2023-04-16T04:24:13.684Z,520.00
2023-04-16T04:25:13.683Z,524.00
2023-04-16T04:26:13.682Z,526.00
2023-04-16T04:27:13.660Z,526.00
2023-04-16T04:28:13.704Z,527.00
2023-04-16T04:29:13.661Z,524.00
2023-04-16T04:30:13.672Z,525.00
2023-04-16T04:31:13.727Z,526.00
2023-04-16T04:32:13.642Z,523.00
2023-04-16T04:33:13.679Z,525.00
2023-04-16T04:34:13.676Z,522.00
2023-04-16T04:35:13.664Z,527.00
2023-04-16T04:36:13.643Z,524.00
2023-04-16T04:37:13.662Z,523.00
2023-04-16T04:38:15.997Z,526.00
2023-04-16T04:39:13.809Z,524.00
2023-04-16T04:40:13.786Z,522.00
2023-04-16T04:41:13.777Z,523.00
2023-04-16T04:42:13.764Z,524.00
2023-04-16T04:43:13.800Z,524.00
2023-04-16T04:44:13.779Z,526.00
2023-04-16T04:45:13.811Z,521.00
2023-04-16T04:46:13.842Z,526.00
2023-04-16T04:47:13.806Z,522.00
2023-04-16T04:48:13.863Z,526.00
2023-04-16T04:49:13.786Z,522.00
2023-04-16T04:50:13.812Z,523.00
2023-04-16T04:51:13.775Z,524.00
2023-04-16T04:52:13.796Z,526.00
2023-04-16T04:53:13.805Z,525.00
2023-04-16T04:54:13.775Z,520.00
2023-04-16T04:55:13.757Z,526.00
2023-04-16T04:56:13.782Z,527.00
2023-04-16T04:57:13.784Z,523.00
2023-04-16T04:58:13.845Z,527.00
2023-04-16T04:59:13.776Z,521.00
2023-04-16T05:00:13.760Z,526.00
2023-04-16T05:01:13.769Z,523.00
2023-04-16T05:02:13.808Z,523.00
2023-04-16T05:03:13.832Z,521.00
2023-04-16T05:04:13.822Z,524.00
2023-04-16T05:05:13.800Z,522.00
2023-04-16T05:06:13.780Z,523.00
2023-04-16T05:07:13.789Z,525.00
2023-04-16T05:08:13.806Z,523.00
2023-04-16T05:09:13.827Z,521.00
2023-04-16T05:10:13.816Z,524.00
2023-04-16T05:11:13.795Z,520.00
2023-04-16T05:12:13.813Z,524.00
2023-04-16T05:13:13.814Z,522.00
2023-04-16T05:14:13.792Z,522.00
2023-04-16T05:15:13.787Z,522.00
2023-04-16T05:16:13.800Z,522.00
2023-04-16T05:17:13.807Z,525.00
2023-04-16T05:18:13.971Z,526.00
2023-04-16T05:19:13.798Z,522.00
2023-04-16T05:20:13.809Z,523.00
2023-04-16T05:21:13.786Z,523.00
2023-04-16T05:22:13.808Z,520.00
2023-04-16T05:23:13.811Z,524.00
2023-04-16T05:24:15.087Z,522.00
2023-04-16T05:25:13.783Z,519.00
2023-04-16T05:26:13.791Z,521.00
2023-04-16T05:27:13.769Z,521.00
2023-04-16T05:28:13.785Z,527.00
2023-04-16T05:29:13.761Z,519.00
2023-04-16T05:30:13.789Z,522.00
2023-04-16T05:31:13.778Z,524.00
2023-04-16T05:32:13.766Z,521.00
2023-04-16T05:33:13.841Z,521.00
2023-04-16T05:34:13.772Z,522.00
2023-04-16T05:35:16.708Z,519.00
2023-04-16T05:36:13.826Z,527.00
2023-04-16T05:37:13.753Z,525.00
2023-04-16T05:38:13.772Z,524.00
2023-04-16T05:39:13.742Z,521.00
2023-04-16T05:40:13.794Z,522.00
2023-04-16T05:41:13.719Z,519.00
2023-04-16T05:42:13.720Z,522.00
2023-04-16T05:43:13.884Z,526.00
2023-04-16T05:44:13.712Z,522.00
2023-04-16T05:45:13.803Z,521.00
2023-04-16T05:46:13.708Z,521.00
2023-04-16T05:47:13.694Z,520.00
2023-04-16T05:48:13.740Z,522.00
2023-04-16T05:49:13.676Z,519.00
2023-04-16T05:50:13.676Z,521.00
2023-04-16T05:51:13.650Z,520.00
2023-04-16T05:52:13.690Z,521.00
2023-04-16T05:53:13.653Z,523.00
2023-04-16T05:54:13.652Z,519.00
2023-04-16T05:55:13.640Z,523.00
2023-04-16T05:56:13.642Z,522.00
2023-04-16T05:57:13.619Z,521.00
2023-04-16T05:58:13.616Z,521.00
2023-04-16T05:59:13.711Z,523.00
2023-04-16T06:00:13.585Z,523.00
2023-04-16T06:01:13.590Z,518.00
2023-04-16T06:02:13.721Z,518.00
2023-04-16T06:03:13.677Z,522.00
2023-04-16T06:04:13.849Z,522.00
2023-04-16T06:05:13.610Z,520.00
2023-04-16T06:06:13.561Z,520.00
2023-04-16T06:07:13.524Z,521.00
2023-04-16T06:08:13.565Z,524.00
2023-04-16T06:09:13.578Z,516.00
2023-04-16T06:10:13.519Z,514.00
2023-04-16T06:11:13.502Z,518.00
2023-04-16T06:12:13.512Z,519.00
2023-04-16T06:13:13.515Z,518.00
2023-04-16T06:14:13.513Z,519.00
2023-04-16T06:15:13.508Z,514.00
2023-04-16T06:16:13.579Z,520.00
2023-04-16T06:17:13.578Z,519.00
2023-04-16T06:18:13.528Z,517.00
2023-04-16T06:19:13.484Z,518.00
2023-04-16T06:20:13.424Z,518.00
2023-04-16T06:21:13.441Z,520.00
2023-04-16T06:22:13.424Z,516.00
2023-04-16T06:23:13.411Z,517.00
2023-04-16T06:24:13.412Z,516.00
2023-04-16T06:25:13.422Z,521.00
2023-04-16T06:26:13.403Z,519.00
2023-04-16T06:27:13.395Z,514.00
2023-04-16T06:28:13.460Z,520.00
2023-04-16T06:29:13.401Z,517.00
2023-04-16T06:30:13.366Z,518.00
2023-04-16T06:31:13.386Z,520.00
2023-04-16T06:32:13.343Z,517.00
2023-04-16T06:33:13.395Z,517.00
2023-04-16T06:34:13.406Z,518.00
2023-04-16T06:35:13.336Z,516.00
2023-04-16T06:36:13.319Z,520.00
2023-04-16T06:37:13.319Z,519.00
2023-04-16T06:38:13.333Z,519.00
2023-04-16T06:39:13.347Z,516.00
2023-04-16T06:40:13.308Z,518.00
2023-04-16T06:41:13.303Z,520.00
2023-04-16T06:42:13.308Z,520.00
2023-04-16T06:43:13.326Z,518.00
2023-04-16T06:44:13.278Z,517.00
2023-04-16T06:45:13.270Z,513.00
2023-04-16T06:46:13.291Z,518.00
2023-04-16T06:47:13.250Z,516.00
2023-04-16T06:48:13.301Z,513.00
2023-04-16T06:49:13.220Z,513.00
2023-04-16T06:50:13.208Z,516.00
2023-04-16T06:51:13.215Z,513.00
2023-04-16T06:52:13.224Z,516.00
2023-04-16T06:53:13.315Z,517.00
2023-04-16T06:54:13.183Z,517.00
2023-04-16T06:55:13.215Z,509.00
2023-04-16T06:56:13.183Z,510.00
2023-04-16T06:57:13.182Z,520.00
2023-04-16T06:58:13.210Z,517.00
2023-04-16T06:59:13.166Z,514.00
2023-04-16T07:00:13.145Z,515.00
2023-04-16T07:01:13.248Z,513.00
2023-04-16T07:02:13.288Z,514.00
2023-04-16T07:03:13.312Z,511.00
2023-04-16T07:04:13.175Z,514.00
2023-04-16T07:05:13.150Z,516.00
2023-04-16T07:06:13.096Z,517.00
2023-04-16T07:07:13.116Z,517.00
2023-04-16T07:08:13.153Z,515.00
2023-04-16T07:09:13.080Z,517.00
2023-04-16T07:10:13.074Z,517.00
2023-04-16T07:11:13.088Z,511.00
2023-04-16T07:12:13.073Z,512.00
2023-04-16T07:13:13.096Z,515.00
2023-04-16T07:14:13.042Z,519.00
2023-04-16T07:15:13.060Z,514.00
2023-04-16T07:16:13.117Z,514.00
2023-04-16T07:17:13.040Z,511.00
2023-04-16T07:18:13.135Z,512.00
2023-04-16T07:19:13.039Z,520.00
2023-04-16T07:20:13.024Z,511.00
2023-04-16T07:21:13.092Z,514.00
2023-04-16T07:22:13.049Z,512.00
2023-04-16T07:23:13.070Z,513.00
2023-04-16T07:24:13.032Z,515.00
2023-04-16T07:25:13.028Z,519.00
2023-04-16T07:26:12.989Z,511.00
2023-04-16T07:27:13.004Z,513.00
2023-04-16T07:28:12.998Z,516.00
2023-04-16T07:29:12.965Z,511.00
2023-04-16T07:30:13.000Z,514.00
2023-04-16T07:31:12.941Z,513.00
2023-04-16T07:32:15.150Z,514.00
2023-04-16T07:33:13.047Z,517.00
2023-04-16T07:34:13.049Z,514.00
2023-04-16T07:35:13.116Z,511.00
2023-04-16T07:36:13.042Z,515.00
2023-04-16T07:37:13.020Z,514.00
2023-04-16T07:38:13.040Z,512.00
2023-04-16T07:39:13.035Z,511.00
2023-04-16T07:40:13.044Z,515.00
2023-04-16T07:41:13.028Z,511.00
2023-04-16T07:42:13.055Z,513.00
2023-04-16T07:43:13.060Z,511.00
2023-04-16T07:44:13.031Z,506.00
2023-04-16T07:45:13.035Z,513.00
2023-04-16T07:46:13.109Z,512.00
2023-04-16T07:47:13.037Z,511.00
2023-04-16T07:48:13.006Z,509.00
2023-04-16T07:49:13.055Z,509.00
2023-04-16T07:50:13.053Z,512.00
2023-04-16T07:51:13.071Z,514.00
2023-04-16T07:52:13.031Z,514.00
2023-04-16T07:53:13.060Z,510.00
2023-04-16T07:54:13.037Z,512.00
2023-04-16T07:55:13.046Z,510.00
2023-04-16T07:56:13.032Z,505.00
2023-04-16T07:57:13.024Z,512.00
2023-04-16T07:58:13.550Z,509.00
2023-04-16T08:00:13.034Z,515.00
2023-04-16T08:01:13.041Z,510.00
2023-04-16T08:02:13.083Z,507.00
2023-04-16T08:03:13.144Z,511.00
2023-04-16T08:04:13.200Z,512.00
2023-04-16T08:05:13.017Z,512.00
2023-04-16T08:06:13.008Z,509.00
2023-04-16T08:07:13.010Z,507.00
2023-04-16T08:08:12.971Z,509.00
2023-04-16T08:09:12.980Z,511.00
2023-04-16T08:10:13.011Z,510.00
2023-04-16T08:11:12.955Z,510.00
2023-04-16T08:12:12.946Z,510.00
2023-04-16T08:13:12.953Z,510.00
2023-04-16T08:14:12.965Z,508.00
2023-04-16T08:15:12.923Z,509.00
2023-04-16T08:16:12.959Z,509.00
2023-04-16T08:17:12.915Z,509.00
2023-04-16T08:18:12.982Z,513.00
2023-04-16T08:19:13.062Z,510.00
2023-04-16T08:20:16.878Z,510.00
2023-04-16T08:21:13.930Z,510.00
2023-04-16T08:22:12.886Z,511.00
2023-04-16T08:23:12.882Z,511.00
2023-04-16T08:24:12.918Z,512.00
2023-04-16T08:25:12.870Z,514.00
2023-04-16T08:26:12.878Z,513.00
2023-04-16T08:27:19.128Z,508.00
2023-04-16T08:28:13.846Z,509.00
2023-04-16T08:29:12.958Z,509.00
2023-04-16T08:30:12.830Z,511.00
2023-04-16T08:31:12.857Z,510.00
2023-04-16T08:32:12.817Z,510.00
2023-04-16T08:33:12.914Z,513.00
2023-04-16T08:34:12.825Z,513.00
2023-04-16T08:35:12.809Z,510.00
2023-04-16T08:36:12.842Z,510.00
2023-04-16T08:37:12.796Z,512.00
2023-04-16T08:38:12.807Z,508.00
2023-04-16T08:39:13.059Z,508.00
2023-04-16T08:40:12.770Z,508.00
2023-04-16T08:41:12.749Z,511.00
2023-04-16T08:42:12.769Z,509.00
2023-04-16T08:43:12.780Z,511.00
2023-04-16T08:44:12.762Z,512.00
2023-04-16T08:45:12.717Z,509.00
2023-04-16T08:46:12.934Z,509.00
2023-04-16T08:47:12.717Z,511.00
2023-04-16T08:48:12.736Z,511.00
2023-04-16T08:49:12.795Z,509.00
2023-04-16T08:50:12.724Z,511.00
2023-04-16T08:51:12.701Z,510.00
2023-04-16T08:52:12.698Z,513.00
2023-04-16T08:53:12.692Z,507.00
2023-04-16T08:54:12.654Z,512.00
2023-04-16T08:55:12.690Z,513.00
2023-04-16T08:56:12.656Z,511.00
2023-04-16T08:57:12.643Z,510.00
2023-04-16T08:58:12.661Z,507.00
2023-04-16T08:59:12.643Z,510.00
2023-04-16T09:00:12.641Z,505.00
2023-04-16T09:01:12.606Z,512.00
2023-04-16T09:02:12.701Z,512.00
2023-04-16T09:03:12.743Z,510.00
2023-04-16T09:04:12.776Z,510.00
2023-04-16T09:05:12.604Z,512.00
2023-04-16T09:06:12.621Z,514.00
2023-04-16T09:07:12.585Z,512.00
2023-04-16T09:08:12.559Z,512.00
2023-04-16T09:09:12.548Z,512.00
2023-04-16T09:10:12.562Z,510.00
2023-04-16T09:11:12.589Z,508.00
2023-04-16T09:12:12.566Z,513.00
2023-04-16T09:13:12.525Z,511.00
2023-04-16T09:14:12.533Z,515.00
2023-04-16T09:15:12.529Z,513.00
2023-04-16T09:16:12.564Z,512.00
2023-04-16T09:17:12.502Z,506.00
2023-04-16T09:18:12.491Z,511.00
2023-04-16T09:19:12.637Z,510.00
2023-04-16T09:20:12.475Z,510.00
2023-04-16T09:21:12.481Z,511.00
2023-04-16T09:22:12.486Z,513.00
2023-04-16T09:23:12.464Z,511.00
2023-04-16T09:24:12.502Z,515.00
2023-04-16T09:25:12.514Z,511.00
2023-04-16T09:26:12.543Z,509.00
2023-04-16T09:27:12.526Z,515.00
2023-04-16T09:28:12.557Z,515.00
2023-04-16T09:29:12.578Z,510.00
2023-04-16T09:30:12.559Z,510.00
2023-04-16T09:31:12.592Z,515.00
2023-04-16T09:32:12.750Z,511.00
2023-04-16T09:33:12.602Z,517.00
2023-04-16T09:34:12.646Z,514.00
2023-04-16T09:35:12.659Z,515.00
2023-04-16T09:36:12.670Z,511.00
2023-04-16T09:37:12.693Z,512.00
2023-04-16T09:38:12.691Z,517.00
2023-04-16T09:39:12.697Z,514.00
2023-04-16T09:40:12.728Z,513.00
2023-04-16T09:41:12.738Z,514.00
2023-04-16T09:42:12.776Z,514.00
2023-04-16T09:43:12.811Z,516.00
2023-04-16T09:44:12.801Z,513.00
2023-04-16T09:45:12.820Z,514.00
2023-04-16T09:46:12.955Z,516.00
2023-04-16T09:47:12.863Z,519.00
2023-04-16T09:48:12.874Z,513.00
2023-04-16T09:49:13.059Z,515.00
2023-04-16T09:50:13.322Z,516.00
2023-04-16T09:51:12.898Z,515.00
2023-04-16T09:52:12.901Z,516.00
2023-04-16T09:53:12.918Z,518.00
2023-04-16T09:54:13.012Z,515.00
2023-04-16T09:55:12.937Z,516.00
2023-04-16T09:56:12.931Z,518.00
2023-04-16T09:57:12.938Z,514.00
2023-04-16T09:58:12.918Z,514.00
2023-04-16T09:59:12.935Z,515.00
2023-04-16T10:00:12.939Z,518.00
2023-04-16T10:01:13.078Z,516.00
2023-04-16T10:02:14.824Z,515.00
2023-04-16T10:03:13.062Z,518.00
2023-04-16T10:04:13.021Z,521.00
2023-04-16T10:05:12.981Z,518.00
2023-04-16T10:06:12.956Z,517.00
2023-04-16T10:07:12.990Z,516.00
2023-04-16T10:08:12.987Z,519.00
2023-04-16T10:09:13.061Z,519.00
2023-04-16T10:10:12.943Z,517.00
2023-04-16T10:11:12.930Z,513.00
2023-04-16T10:12:12.958Z,515.00
2023-04-16T10:13:12.948Z,514.00
2023-04-16T10:14:12.912Z,512.00
2023-04-16T10:15:12.908Z,511.00
2023-04-16T10:16:12.964Z,514.00
2023-04-16T10:17:12.973Z,521.00
2023-04-16T10:18:12.925Z,516.00
2023-04-16T10:19:12.999Z,511.00
2023-04-16T10:20:12.875Z,515.00
2023-04-16T10:21:12.921Z,519.00
2023-04-16T10:22:12.862Z,516.00
2023-04-16T10:23:12.847Z,520.00
2023-04-16T10:24:12.847Z,519.00
2023-04-16T10:25:12.859Z,518.00
2023-04-16T10:26:12.838Z,519.00
2023-04-16T10:27:12.829Z,517.00
2023-04-16T10:28:12.803Z,516.00
2023-04-16T10:29:12.937Z,517.00
2023-04-16T10:30:12.785Z,515.00
2023-04-16T10:31:12.853Z,518.00
2023-04-16T10:32:12.780Z,518.00
2023-04-16T10:33:12.784Z,517.00
2023-04-16T10:34:12.768Z,516.00
2023-04-16T10:35:12.802Z,516.00
2023-04-16T10:36:12.862Z,517.00
2023-04-16T10:37:12.772Z,520.00
2023-04-16T10:38:12.741Z,520.00
2023-04-16T10:39:14.776Z,515.00
2023-04-16T10:40:12.765Z,516.00
2023-04-16T10:41:12.729Z,516.00
2023-04-16T10:42:12.730Z,516.00
2023-04-16T10:43:12.702Z,517.00
2023-04-16T10:44:12.718Z,521.00
2023-04-16T10:45:12.692Z,519.00
2023-04-16T10:46:12.696Z,514.00
2023-04-16T10:47:12.782Z,518.00
2023-04-16T10:48:12.671Z,515.00
2023-04-16T10:49:12.694Z,513.00
2023-04-16T10:50:12.661Z,516.00
2023-04-16T10:51:12.645Z,514.00
2023-04-16T10:52:12.653Z,518.00
2023-04-16T10:53:12.640Z,516.00
2023-04-16T10:54:12.650Z,519.00
2023-04-16T10:55:12.616Z,515.00
2023-04-16T10:56:12.623Z,515.00
2023-04-16T10:57:12.646Z,516.00
2023-04-16T10:58:12.618Z,514.00
2023-04-16T10:59:12.790Z,517.00
2023-04-16T11:00:12.594Z,514.00
2023-04-16T11:01:12.629Z,515.00
2023-04-16T11:02:12.688Z,512.00
2023-04-16T11:03:12.742Z,514.00
2023-04-16T11:04:12.714Z,518.00
2023-04-16T11:05:12.559Z,514.00
2023-04-16T11:06:12.597Z,514.00
2023-04-16T11:07:12.556Z,516.00
2023-04-16T11:08:12.539Z,523.00
2023-04-16T11:09:12.683Z,516.00
2023-04-16T11:10:12.689Z,517.00
2023-04-16T11:11:12.704Z,514.00
2023-04-16T11:12:12.820Z,517.00
2023-04-16T11:13:12.816Z,519.00
2023-04-16T11:14:12.884Z,514.00
2023-04-16T11:15:12.937Z,514.00
2023-04-16T11:16:12.980Z,516.00
2023-04-16T11:17:13.016Z,516.00
2023-04-16T11:18:13.091Z,519.00
2023-04-16T11:19:13.123Z,510.00
2023-04-16T11:20:19.351Z,515.00
2023-04-16T11:21:14.188Z,515.00
2023-04-16T11:22:13.167Z,516.00
2023-04-16T11:23:13.240Z,515.00
2023-04-16T11:24:13.189Z,520.00
2023-04-16T11:25:13.172Z,518.00
2023-04-16T11:26:13.136Z,514.00
2023-04-16T11:27:13.161Z,518.00
2023-04-16T11:28:13.148Z,513.00
2023-04-16T11:29:13.146Z,513.00
2023-04-16T11:30:13.187Z,516.00
2023-04-16T11:31:13.276Z,510.00
2023-04-16T11:32:13.286Z,518.00
2023-04-16T11:33:13.360Z,514.00
2023-04-16T11:34:13.388Z,513.00
2023-04-16T11:35:13.420Z,518.00
2023-04-16T11:36:13.460Z,513.00
2023-04-16T11:37:13.520Z,516.00
2023-04-16T11:38:13.599Z,516.00
2023-04-16T11:39:13.633Z,519.00
2023-04-16T11:40:13.819Z,516.00
2023-04-16T11:41:13.713Z,511.00
2023-04-16T11:42:13.793Z,518.00
2023-04-16T11:43:13.842Z,512.00
2023-04-16T11:44:13.883Z,518.00
2023-04-16T11:45:13.918Z,513.00
2023-04-16T11:46:26.954Z,514.00
2023-04-16T11:47:14.974Z,514.00
2023-04-16T11:48:13.990Z,514.00
2023-04-16T11:49:14.091Z,515.00
2023-04-16T11:50:13.961Z,516.00
2023-04-16T11:51:13.970Z,514.00
2023-04-16T11:52:13.963Z,516.00
2023-04-16T11:53:13.919Z,512.00
2023-04-16T11:54:13.917Z,517.00
2023-04-16T11:55:13.893Z,517.00
2023-04-16T11:56:13.924Z,513.00
2023-04-16T11:57:13.945Z,512.00
2023-04-16T11:58:13.990Z,516.00
2023-04-16T11:59:14.410Z,513.00
2023-04-16T12:00:14.216Z,516.00
2023-04-16T12:01:14.104Z,516.00
2023-04-16T12:02:14.163Z,512.00
2023-04-16T12:03:14.469Z,515.00
2023-04-16T12:04:14.344Z,517.00
2023-04-16T12:05:14.290Z,514.00
2023-04-16T12:06:14.309Z,519.00
2023-04-16T12:07:14.310Z,514.00
2023-04-16T12:08:14.359Z,514.00
2023-04-16T12:09:14.352Z,515.00
2023-04-16T12:10:14.370Z,516.00
2023-04-16T12:11:14.407Z,516.00
2023-04-16T12:12:14.431Z,520.00
2023-04-16T12:13:14.447Z,514.00
2023-04-16T12:14:14.479Z,512.00
2023-04-16T12:15:14.521Z,516.00
2023-04-16T12:16:14.569Z,518.00
2023-04-16T12:17:14.674Z,509.00
2023-04-16T12:18:14.623Z,517.00
2023-04-16T12:19:14.647Z,512.00
2023-04-16T12:20:14.663Z,516.00
2023-04-16T12:21:14.650Z,512.00
2023-04-16T12:22:14.687Z,515.00
2023-04-16T12:23:14.739Z,515.00
2023-04-16T12:24:14.741Z,518.00
2023-04-16T12:25:14.728Z,514.00
2023-04-16T12:26:14.746Z,513.00
2023-04-16T12:27:14.773Z,515.00
2023-04-16T12:28:14.809Z,514.00
2023-04-16T12:29:14.875Z,515.00